sensor_id;sensor_type;location;lat;lon;timestamp;temperature;humidity
67799;SHT30;54596;43.216;27.904;2024-03-22T00:00:30;5.35;89.25
67799;SHT30;54596;43.216;27.904;2024-03-22T00:02:56;5.37;89.28
67799;SHT30;54596;43.216;27.904;2024-03-22T00:05:21;5.39;89.34
67799;SHT30;54596;43.216;27.904;2024-03-22T00:07:47;5.39;89.24
67799;SHT30;54596;43.216;27.904;2024-03-22T00:10:13;5.43;89.24
67799;SHT30;54596;43.216;27.904;2024-03-22T00:12:39;5.47;89.25
67799;SHT30;54596;43.216;27.904;2024-03-22T00:15:06;5.46;89.07
67799;SHT30;54596;43.216;27.904;2024-03-22T00:17:31;5.48;89.02
67799;SHT30;54596;43.216;27.904;2024-03-22T00:19:58;5.53;88.93
67799;SHT30;54596;43.216;27.904;2024-03-22T00:22:24;5.54;88.79
67799;SHT30;54596;43.216;27.904;2024-03-22T00:24:49;5.53;88.94
67799;SHT30;54596;43.216;27.904;2024-03-22T00:27:15;5.53;88.89
67799;SHT30;54596;43.216;27.904;2024-03-22T00:29:40;5.51;88.84
67799;SHT30;54596;43.216;27.904;2024-03-22T00:32:06;5.50;88.64
67799;SHT30;54596;43.216;27.904;2024-03-22T00:34:34;5.44;88.65
67799;SHT30;54596;43.216;27.904;2024-03-22T00:37:00;5.51;88.85
67799;SHT30;54596;43.216;27.904;2024-03-22T00:39:25;5.51;88.75
67799;SHT30;54596;43.216;27.904;2024-03-22T00:41:51;5.44;88.83
67799;SHT30;54596;43.216;27.904;2024-03-22T00:44:16;5.46;88.79
67799;SHT30;54596;43.216;27.904;2024-03-22T00:46:42;5.44;88.76
67799;SHT30;54596;43.216;27.904;2024-03-22T00:49:07;5.43;88.75
67799;SHT30;54596;43.216;27.904;2024-03-22T00:51:33;5.40;88.76
67799;SHT30;54596;43.216;27.904;2024-03-22T00:53:58;5.42;88.69
67799;SHT30;54596;43.216;27.904;2024-03-22T00:56:24;5.44;88.71
67799;SHT30;54596;43.216;27.904;2024-03-22T00:58:49;5.42;88.77
67799;SHT30;54596;43.216;27.904;2024-03-22T01:01:15;5.46;88.70
67799;SHT30;54596;43.216;27.904;2024-03-22T01:03:40;5.40;88.83
67799;SHT30;54596;43.216;27.904;2024-03-22T01:06:06;5.37;88.81
67799;SHT30;54596;43.216;27.904;2024-03-22T01:08:32;5.36;88.88
67799;SHT30;54596;43.216;27.904;2024-03-22T01:10:58;5.36;89.01
67799;SHT30;54596;43.216;27.904;2024-03-22T01:13:24;5.33;89.06
67799;SHT30;54596;43.216;27.904;2024-03-22T01:15:49;5.30;89.20
67799;SHT30;54596;43.216;27.904;2024-03-22T01:18:15;5.32;89.28
67799;SHT30;54596;43.216;27.904;2024-03-22T01:20:41;5.29;89.25
67799;SHT30;54596;43.216;27.904;2024-03-22T01:23:07;5.25;89.50
67799;SHT30;54596;43.216;27.904;2024-03-22T01:25:33;5.23;89.36
67799;SHT30;54596;43.216;27.904;2024-03-22T01:27:58;5.19;89.34
67799;SHT30;54596;43.216;27.904;2024-03-22T01:30:24;5.16;89.36
67799;SHT30;54596;43.216;27.904;2024-03-22T01:32:54;5.13;89.49
67799;SHT30;54596;43.216;27.904;2024-03-22T01:35:20;5.12;89.56
67799;SHT30;54596;43.216;27.904;2024-03-22T01:37:45;5.12;89.61
67799;SHT30;54596;43.216;27.904;2024-03-22T01:40:11;5.07;89.60
67799;SHT30;54596;43.216;27.904;2024-03-22T01:42:38;5.02;89.78
67799;SHT30;54596;43.216;27.904;2024-03-22T01:45:04;4.96;89.99
67799;SHT30;54596;43.216;27.904;2024-03-22T01:47:29;4.95;90.10
67799;SHT30;54596;43.216;27.904;2024-03-22T01:49:55;4.95;90.23
67799;SHT30;54596;43.216;27.904;2024-03-22T01:52:21;4.84;90.45
67799;SHT30;54596;43.216;27.904;2024-03-22T01:54:47;4.81;90.68
67799;SHT30;54596;43.216;27.904;2024-03-22T01:57:14;4.77;90.79
67799;SHT30;54596;43.216;27.904;2024-03-22T01:59:39;4.74;91.03
67799;SHT30;54596;43.216;27.904;2024-03-22T02:02:05;4.73;91.15
67799;SHT30;54596;43.216;27.904;2024-03-22T02:04:31;4.70;91.31
67799;SHT30;54596;43.216;27.904;2024-03-22T02:06:57;4.66;91.52
67799;SHT30;54596;43.216;27.904;2024-03-22T02:09:22;4.66;91.61
67799;SHT30;54596;43.216;27.904;2024-03-22T02:11:48;4.63;91.67
67799;SHT30;54596;43.216;27.904;2024-03-22T02:14:14;4.60;91.69
67799;SHT30;54596;43.216;27.904;2024-03-22T02:16:40;4.58;91.85
67799;SHT30;54596;43.216;27.904;2024-03-22T02:19:07;4.56;91.84
67799;SHT30;54596;43.216;27.904;2024-03-22T02:21:33;4.56;91.87
67799;SHT30;54596;43.216;27.904;2024-03-22T02:23:58;4.54;91.80
67799;SHT30;54596;43.216;27.904;2024-03-22T02:26:24;4.53;91.84
67799;SHT30;54596;43.216;27.904;2024-03-22T02:28:49;4.53;91.85
67799;SHT30;54596;43.216;27.904;2024-03-22T02:31:15;4.52;91.73
67799;SHT30;54596;43.216;27.904;2024-03-22T02:33:40;4.50;91.71
67799;SHT30;54596;43.216;27.904;2024-03-22T02:36:06;4.47;91.63
67799;SHT30;54596;43.216;27.904;2024-03-22T02:38:32;4.45;91.67
67799;SHT30;54596;43.216;27.904;2024-03-22T02:40:58;4.47;91.67
67799;SHT30;54596;43.216;27.904;2024-03-22T02:43:23;4.46;91.67
67799;SHT30;54596;43.216;27.904;2024-03-22T02:45:49;4.45;91.64
67799;SHT30;54596;43.216;27.904;2024-03-22T02:48:15;4.43;91.71
67799;SHT30;54596;43.216;27.904;2024-03-22T02:50:40;4.43;91.73
67799;SHT30;54596;43.216;27.904;2024-03-22T02:53:06;4.40;91.74
67799;SHT30;54596;43.216;27.904;2024-03-22T02:55:39;4.40;91.72
67799;SHT30;54596;43.216;27.904;2024-03-22T02:58:06;4.39;91.77
67799;SHT30;54596;43.216;27.904;2024-03-22T03:00:38;4.39;91.74
67799;SHT30;54596;43.216;27.904;2024-03-22T03:03:07;4.35;91.66
67799;SHT30;54596;43.216;27.904;2024-03-22T03:05:33;4.35;91.66
67799;SHT30;54596;43.216;27.904;2024-03-22T03:08:00;4.32;91.68
67799;SHT30;54596;43.216;27.904;2024-03-22T03:10:26;4.32;91.72
67799;SHT30;54596;43.216;27.904;2024-03-22T03:12:54;4.30;91.69
67799;SHT30;54596;43.216;27.904;2024-03-22T03:15:19;4.35;91.62
67799;SHT30;54596;43.216;27.904;2024-03-22T03:17:45;4.30;91.64
67799;SHT30;54596;43.216;27.904;2024-03-22T03:20:11;4.26;91.61
67799;SHT30;54596;43.216;27.904;2024-03-22T03:22:42;4.26;91.59
67799;SHT30;54596;43.216;27.904;2024-03-22T03:25:08;4.23;91.67
67799;SHT30;54596;43.216;27.904;2024-03-22T03:27:34;4.25;91.68
67799;SHT30;54596;43.216;27.904;2024-03-22T03:29:59;4.25;91.56
67799;SHT30;54596;43.216;27.904;2024-03-22T03:32:26;4.23;91.57
67799;SHT30;54596;43.216;27.904;2024-03-22T03:34:52;4.23;91.75
67799;SHT30;54596;43.216;27.904;2024-03-22T03:37:17;4.29;92.02
67799;SHT30;54596;43.216;27.904;2024-03-22T03:39:43;4.35;91.91
67799;SHT30;54596;43.216;27.904;2024-03-22T03:42:09;4.33;91.72
67799;SHT30;54596;43.216;27.904;2024-03-22T03:44:34;4.33;91.64
67799;SHT30;54596;43.216;27.904;2024-03-22T03:47:01;4.36;91.59
67799;SHT30;54596;43.216;27.904;2024-03-22T03:49:27;4.33;91.19
67799;SHT30;54596;43.216;27.904;2024-03-22T03:51:53;4.33;90.99
67799;SHT30;54596;43.216;27.904;2024-03-22T03:54:18;4.33;90.90
67799;SHT30;54596;43.216;27.904;2024-03-22T03:56:44;4.32;90.78
67799;SHT30;54596;43.216;27.904;2024-03-22T03:59:10;4.32;91.07
67799;SHT30;54596;43.216;27.904;2024-03-22T04:01:35;4.29;90.91
67799;SHT30;54596;43.216;27.904;2024-03-22T04:04:03;4.30;91.07
67799;SHT30;54596;43.216;27.904;2024-03-22T04:06:29;4.32;91.07
67799;SHT30;54596;43.216;27.904;2024-03-22T04:08:55;4.33;91.14
67799;SHT30;54596;43.216;27.904;2024-03-22T04:11:21;4.39;91.24
67799;SHT30;54596;43.216;27.904;2024-03-22T04:13:47;4.45;91.25
67799;SHT30;54596;43.216;27.904;2024-03-22T04:16:13;4.36;91.02
67799;SHT30;54596;43.216;27.904;2024-03-22T04:18:39;4.36;90.77
67799;SHT30;54596;43.216;27.904;2024-03-22T04:21:05;4.38;90.95
67799;SHT30;54596;43.216;27.904;2024-03-22T04:23:30;4.42;90.87
67799;SHT30;54596;43.216;27.904;2024-03-22T04:26:00;4.46;90.87
67799;SHT30;54596;43.216;27.904;2024-03-22T04:28:29;4.49;90.62
67799;SHT30;54596;43.216;27.904;2024-03-22T04:33:28;4.61;90.47
67799;SHT30;54596;43.216;27.904;2024-03-22T04:35:55;4.67;90.26
67799;SHT30;54596;43.216;27.904;2024-03-22T04:38:24;4.73;90.36
67799;SHT30;54596;43.216;27.904;2024-03-22T04:40:50;4.78;90.34
67799;SHT30;54596;43.216;27.904;2024-03-22T04:43:16;4.81;90.14
67799;SHT30;54596;43.216;27.904;2024-03-22T04:45:46;4.89;90.12
67799;SHT30;54596;43.216;27.904;2024-03-22T04:48:17;4.92;89.77
67799;SHT30;54596;43.216;27.904;2024-03-22T04:50:44;4.99;89.68
67799;SHT30;54596;43.216;27.904;2024-03-22T04:53:10;5.08;89.62
67799;SHT30;54596;43.216;27.904;2024-03-22T04:55:36;5.08;89.53
67799;SHT30;54596;43.216;27.904;2024-03-22T04:58:03;5.09;89.42
67799;SHT30;54596;43.216;27.904;2024-03-22T05:00:29;5.08;89.36
67799;SHT30;54596;43.216;27.904;2024-03-22T05:02:54;5.07;89.26
67799;SHT30;54596;43.216;27.904;2024-03-22T05:05:20;5.05;88.82
67799;SHT30;54596;43.216;27.904;2024-03-22T05:07:46;5.12;88.72
67799;SHT30;54596;43.216;27.904;2024-03-22T05:10:12;5.23;88.71
67799;SHT30;54596;43.216;27.904;2024-03-22T05:12:38;5.35;88.59
67799;SHT30;54596;43.216;27.904;2024-03-22T05:15:05;5.46;88.27
67799;SHT30;54596;43.216;27.904;2024-03-22T05:17:31;5.60;87.86
67799;SHT30;54596;43.216;27.904;2024-03-22T05:20:00;5.70;87.69
67799;SHT30;54596;43.216;27.904;2024-03-22T05:22:27;5.82;87.50
67799;SHT30;54596;43.216;27.904;2024-03-22T05:24:53;5.89;87.01
67799;SHT30;54596;43.216;27.904;2024-03-22T05:27:18;6.03;86.99
67799;SHT30;54596;43.216;27.904;2024-03-22T05:29:44;6.09;86.51
67799;SHT30;54596;43.216;27.904;2024-03-22T05:32:10;6.30;86.34
67799;SHT30;54596;43.216;27.904;2024-03-22T05:34:35;6.48;85.87
67799;SHT30;54596;43.216;27.904;2024-03-22T05:37:02;6.65;85.17
67799;SHT30;54596;43.216;27.904;2024-03-22T05:39:27;6.81;84.20
67799;SHT30;54596;43.216;27.904;2024-03-22T05:41:53;6.99;83.87
67799;SHT30;54596;43.216;27.904;2024-03-22T05:44:22;7.10;83.54
67799;SHT30;54596;43.216;27.904;2024-03-22T05:46:47;7.23;82.85
67799;SHT30;54596;43.216;27.904;2024-03-22T05:49:13;7.35;82.19
67799;SHT30;54596;43.216;27.904;2024-03-22T05:51:38;7.46;82.33
67799;SHT30;54596;43.216;27.904;2024-03-22T05:54:04;7.74;81.66
67799;SHT30;54596;43.216;27.904;2024-03-22T05:56:30;8.00;81.33
67799;SHT30;54596;43.216;27.904;2024-03-22T05:58:55;8.62;80.15
67799;SHT30;54596;43.216;27.904;2024-03-22T06:01:21;9.04;78.84
67799;SHT30;54596;43.216;27.904;2024-03-22T06:03:46;9.65;76.96
67799;SHT30;54596;43.216;27.904;2024-03-22T06:06:13;10.17;75.82
67799;SHT30;54596;43.216;27.904;2024-03-22T06:08:39;10.66;73.70
67799;SHT30;54596;43.216;27.904;2024-03-22T06:11:07;11.11;72.62
67799;SHT30;54596;43.216;27.904;2024-03-22T06:13:33;11.65;71.46
67799;SHT30;54596;43.216;27.904;2024-03-22T06:16:00;11.93;70.26
67799;SHT30;54596;43.216;27.904;2024-03-22T06:18:25;11.93;69.54
67799;SHT30;54596;43.216;27.904;2024-03-22T06:20:51;11.98;69.28
67799;SHT30;54596;43.216;27.904;2024-03-22T06:23:19;12.14;68.83
67799;SHT30;54596;43.216;27.904;2024-03-22T06:25:54;12.53;68.34
67799;SHT30;54596;43.216;27.904;2024-03-22T06:28:20;12.86;67.14
67799;SHT30;54596;43.216;27.904;2024-03-22T06:30:45;13.05;67.01
67799;SHT30;54596;43.216;27.904;2024-03-22T06:33:11;13.65;65.58
67799;SHT30;54596;43.216;27.904;2024-03-22T06:35:36;14.19;64.64
67799;SHT30;54596;43.216;27.904;2024-03-22T06:38:02;14.53;63.62
67799;SHT30;54596;43.216;27.904;2024-03-22T06:40:28;15.02;62.39
67799;SHT30;54596;43.216;27.904;2024-03-22T06:42:54;15.32;61.86
67799;SHT30;54596;43.216;27.904;2024-03-22T06:45:19;15.57;60.87
67799;SHT30;54596;43.216;27.904;2024-03-22T06:47:45;15.42;60.34
67799;SHT30;54596;43.216;27.904;2024-03-22T06:50:11;15.56;60.45
67799;SHT30;54596;43.216;27.904;2024-03-22T06:52:37;16.38;59.12
67799;SHT30;54596;43.216;27.904;2024-03-22T06:55:02;16.49;58.30
67799;SHT30;54596;43.216;27.904;2024-03-22T06:57:29;16.92;57.66
67799;SHT30;54596;43.216;27.904;2024-03-22T06:59:54;17.05;57.00
67799;SHT30;54596;43.216;27.904;2024-03-22T07:02:20;17.59;55.91
67799;SHT30;54596;43.216;27.904;2024-03-22T07:04:46;17.63;55.80
67799;SHT30;54596;43.216;27.904;2024-03-22T07:07:11;17.81;55.81
67799;SHT30;54596;43.216;27.904;2024-03-22T07:09:37;18.10;53.99
67799;SHT30;54596;43.216;27.904;2024-03-22T07:12:03;17.61;55.11
67799;SHT30;54596;43.216;27.904;2024-03-22T07:14:28;17.15;56.09
67799;SHT30;54596;43.216;27.904;2024-03-22T07:16:54;16.98;56.53
67799;SHT30;54596;43.216;27.904;2024-03-22T07:19:20;17.16;56.39
67799;SHT30;54596;43.216;27.904;2024-03-22T07:21:46;17.71;55.43
67799;SHT30;54596;43.216;27.904;2024-03-22T07:24:12;18.75;53.23
67799;SHT30;54596;43.216;27.904;2024-03-22T07:26:38;19.82;51.67
67799;SHT30;54596;43.216;27.904;2024-03-22T07:29:04;20.57;49.83
67799;SHT30;54596;43.216;27.904;2024-03-22T07:31:30;21.09;49.13
67799;SHT30;54596;43.216;27.904;2024-03-22T07:33:55;21.44;48.34
67799;SHT30;54596;43.216;27.904;2024-03-22T07:36:21;21.68;47.66
67799;SHT30;54596;43.216;27.904;2024-03-22T07:38:47;22.00;47.70
67799;SHT30;54596;43.216;27.904;2024-03-22T07:41:14;22.02;46.15
67799;SHT30;54596;43.216;27.904;2024-03-22T07:43:40;22.45;45.33
67799;SHT30;54596;43.216;27.904;2024-03-22T07:46:05;22.85;44.27
67799;SHT30;54596;43.216;27.904;2024-03-22T07:48:31;23.17;43.19
67799;SHT30;54596;43.216;27.904;2024-03-22T07:51:00;23.24;42.27
67799;SHT30;54596;43.216;27.904;2024-03-22T07:53:26;23.61;42.13
67799;SHT30;54596;43.216;27.904;2024-03-22T07:55:52;23.81;41.95
67799;SHT30;54596;43.216;27.904;2024-03-22T07:58:18;23.95;41.76
67799;SHT30;54596;43.216;27.904;2024-03-22T08:00:44;23.27;42.75
67799;SHT30;54596;43.216;27.904;2024-03-22T08:03:14;23.05;41.58
67799;SHT30;54596;43.216;27.904;2024-03-22T08:05:40;22.00;43.88
67799;SHT30;54596;43.216;27.904;2024-03-22T08:08:06;22.71;43.40
67799;SHT30;54596;43.216;27.904;2024-03-22T08:10:32;22.62;43.09
67799;SHT30;54596;43.216;27.904;2024-03-22T08:12:57;22.91;42.93
67799;SHT30;54596;43.216;27.904;2024-03-22T08:15:23;23.44;42.63
67799;SHT30;54596;43.216;27.904;2024-03-22T08:17:48;23.99;42.31
67799;SHT30;54596;43.216;27.904;2024-03-22T08:20:14;24.17;42.71
67799;SHT30;54596;43.216;27.904;2024-03-22T08:22:39;24.36;42.50
67799;SHT30;54596;43.216;27.904;2024-03-22T08:25:05;22.45;42.67
67799;SHT30;54596;43.216;27.904;2024-03-22T08:27:33;21.61;43.60
67799;SHT30;54596;43.216;27.904;2024-03-22T08:29:59;21.64;45.18
67799;SHT30;54596;43.216;27.904;2024-03-22T08:32:25;22.32;44.27
67799;SHT30;54596;43.216;27.904;2024-03-22T08:34:51;22.40;44.77
67799;SHT30;54596;43.216;27.904;2024-03-22T08:37:16;22.43;44.02
67799;SHT30;54596;43.216;27.904;2024-03-22T08:39:43;22.12;44.67
67799;SHT30;54596;43.216;27.904;2024-03-22T08:42:08;20.71;45.24
67799;SHT30;54596;43.216;27.904;2024-03-22T08:44:35;19.77;46.30
67799;SHT30;54596;43.216;27.904;2024-03-22T08:47:00;19.89;47.15
67799;SHT30;54596;43.216;27.904;2024-03-22T08:49:26;18.43;47.61
67799;SHT30;54596;43.216;27.904;2024-03-22T08:51:52;17.70;50.03
67799;SHT30;54596;43.216;27.904;2024-03-22T08:54:17;17.50;50.28
67799;SHT30;54596;43.216;27.904;2024-03-22T08:56:43;17.26;50.59
67799;SHT30;54596;43.216;27.904;2024-03-22T08:59:09;16.78;51.99
67799;SHT30;54596;43.216;27.904;2024-03-22T09:01:35;16.81;52.63
67799;SHT30;54596;43.216;27.904;2024-03-22T09:04:01;16.55;53.58
67799;SHT30;54596;43.216;27.904;2024-03-22T09:06:27;15.74;54.86
67799;SHT30;54596;43.216;27.904;2024-03-22T09:08:52;15.64;55.74
67799;SHT30;54596;43.216;27.904;2024-03-22T09:11:20;14.88;55.92
67799;SHT30;54596;43.216;27.904;2024-03-22T09:13:46;14.83;56.49
67799;SHT30;54596;43.216;27.904;2024-03-22T09:16:15;14.64;56.81
67799;SHT30;54596;43.216;27.904;2024-03-22T09:18:41;14.50;56.40
67799;SHT30;54596;43.216;27.904;2024-03-22T09:21:06;13.83;58.11
67799;SHT30;54596;43.216;27.904;2024-03-22T09:23:34;13.91;58.96
67799;SHT30;54596;43.216;27.904;2024-03-22T09:25:59;14.02;59.30
67799;SHT30;54596;43.216;27.904;2024-03-22T09:28:25;14.07;58.95
67799;SHT30;54596;43.216;27.904;2024-03-22T09:30:51;13.73;57.49
67799;SHT30;54596;43.216;27.904;2024-03-22T09:33:17;13.50;58.10
67799;SHT30;54596;43.216;27.904;2024-03-22T09:35:43;13.53;59.15
67799;SHT30;54596;43.216;27.904;2024-03-22T09:38:08;13.70;59.69
67799;SHT30;54596;43.216;27.904;2024-03-22T09:40:37;13.85;58.86
67799;SHT30;54596;43.216;27.904;2024-03-22T09:43:06;13.90;58.66
67799;SHT30;54596;43.216;27.904;2024-03-22T09:45:32;13.90;57.42
67799;SHT30;54596;43.216;27.904;2024-03-22T09:47:58;13.88;57.81
67799;SHT30;54596;43.216;27.904;2024-03-22T09:50:24;13.87;57.54
67799;SHT30;54596;43.216;27.904;2024-03-22T09:52:52;13.63;57.60
67799;SHT30;54596;43.216;27.904;2024-03-22T09:55:22;13.46;58.80
67799;SHT30;54596;43.216;27.904;2024-03-22T09:57:48;13.49;59.66
67799;SHT30;54596;43.216;27.904;2024-03-22T10:00:18;13.48;59.45
67799;SHT30;54596;43.216;27.904;2024-03-22T10:02:46;13.70;60.17
67799;SHT30;54596;43.216;27.904;2024-03-22T10:05:12;13.91;59.47
67799;SHT30;54596;43.216;27.904;2024-03-22T10:07:39;14.12;59.52
67799;SHT30;54596;43.216;27.904;2024-03-22T10:10:04;13.91;58.41
67799;SHT30;54596;43.216;27.904;2024-03-22T10:12:30;13.73;59.08
67799;SHT30;54596;43.216;27.904;2024-03-22T10:14:56;13.83;59.60
67799;SHT30;54596;43.216;27.904;2024-03-22T10:17:21;13.76;59.38
67799;SHT30;54596;43.216;27.904;2024-03-22T10:19:50;13.66;59.30
67799;SHT30;54596;43.216;27.904;2024-03-22T10:22:17;13.81;59.50
67799;SHT30;54596;43.216;27.904;2024-03-22T10:24:42;13.74;59.29
67799;SHT30;54596;43.216;27.904;2024-03-22T10:27:09;13.77;58.66
67799;SHT30;54596;43.216;27.904;2024-03-22T10:29:35;13.42;58.55
67799;SHT30;54596;43.216;27.904;2024-03-22T10:32:01;13.21;59.21
67799;SHT30;54596;43.216;27.904;2024-03-22T10:34:27;13.25;59.75
67799;SHT30;54596;43.216;27.904;2024-03-22T10:36:55;13.15;57.90
67799;SHT30;54596;43.216;27.904;2024-03-22T10:39:23;13.23;57.32
67799;SHT30;54596;43.216;27.904;2024-03-22T10:41:49;13.01;57.65
67799;SHT30;54596;43.216;27.904;2024-03-22T10:44:15;13.07;58.30
67799;SHT30;54596;43.216;27.904;2024-03-22T10:46:48;13.19;59.32
67799;SHT30;54596;43.216;27.904;2024-03-22T10:49:18;12.93;59.06
67799;SHT30;54596;43.216;27.904;2024-03-22T10:51:58;12.88;59.83
67799;SHT30;54596;43.216;27.904;2024-03-22T10:54:30;13.00;58.45
67799;SHT30;54596;43.216;27.904;2024-03-22T10:56:57;13.04;58.79
67799;SHT30;54596;43.216;27.904;2024-03-22T10:59:23;13.05;59.14
67799;SHT30;54596;43.216;27.904;2024-03-22T11:01:50;13.18;59.44
67799;SHT30;54596;43.216;27.904;2024-03-22T11:04:17;13.16;59.57
67799;SHT30;54596;43.216;27.904;2024-03-22T11:06:49;12.93;60.00
67799;SHT30;54596;43.216;27.904;2024-03-22T11:09:21;13.00;60.79
67799;SHT30;54596;43.216;27.904;2024-03-22T11:11:47;13.03;60.29
67799;SHT30;54596;43.216;27.904;2024-03-22T11:14:12;12.94;59.32
67799;SHT30;54596;43.216;27.904;2024-03-22T11:16:38;13.11;59.44
67799;SHT30;54596;43.216;27.904;2024-03-22T11:19:04;13.25;58.83
67799;SHT30;54596;43.216;27.904;2024-03-22T11:21:33;13.45;58.36
67799;SHT30;54596;43.216;27.904;2024-03-22T11:24:04;13.55;58.62
67799;SHT30;54596;43.216;27.904;2024-03-22T11:26:31;13.42;58.54
67799;SHT30;54596;43.216;27.904;2024-03-22T11:28:56;13.19;57.46
67799;SHT30;54596;43.216;27.904;2024-03-22T11:31:22;12.79;56.94
67799;SHT30;54596;43.216;27.904;2024-03-22T11:33:53;12.62;57.04
67799;SHT30;54596;43.216;27.904;2024-03-22T11:36:19;12.64;57.13
67799;SHT30;54596;43.216;27.904;2024-03-22T11:38:46;12.73;58.47
67799;SHT30;54596;43.216;27.904;2024-03-22T11:41:14;12.90;57.95
67799;SHT30;54596;43.216;27.904;2024-03-22T11:43:43;13.01;57.78
67799;SHT30;54596;43.216;27.904;2024-03-22T11:46:08;13.07;58.72
67799;SHT30;54596;43.216;27.904;2024-03-22T11:48:41;12.66;59.29
67799;SHT30;54596;43.216;27.904;2024-03-22T11:51:08;12.62;59.15
67799;SHT30;54596;43.216;27.904;2024-03-22T11:53:35;12.32;58.57
67799;SHT30;54596;43.216;27.904;2024-03-22T11:56:01;12.24;58.34
67799;SHT30;54596;43.216;27.904;2024-03-22T11:58:29;12.25;56.43
67799;SHT30;54596;43.216;27.904;2024-03-22T12:00:58;12.34;56.11
67799;SHT30;54596;43.216;27.904;2024-03-22T12:03:24;12.48;57.35
67799;SHT30;54596;43.216;27.904;2024-03-22T12:05:49;12.53;57.78
67799;SHT30;54596;43.216;27.904;2024-03-22T12:08:17;12.83;58.43
67799;SHT30;54596;43.216;27.904;2024-03-22T12:10:43;13.05;58.46
67799;SHT30;54596;43.216;27.904;2024-03-22T12:13:09;13.22;58.20
67799;SHT30;54596;43.216;27.904;2024-03-22T12:15:34;13.05;57.47
67799;SHT30;54596;43.216;27.904;2024-03-22T12:18:01;13.14;57.70
67799;SHT30;54596;43.216;27.904;2024-03-22T12:20:26;13.11;58.05
67799;SHT30;54596;43.216;27.904;2024-03-22T12:22:52;13.14;57.59
67799;SHT30;54596;43.216;27.904;2024-03-22T12:25:18;13.07;57.74
67799;SHT30;54596;43.216;27.904;2024-03-22T12:27:43;13.07;57.22
67799;SHT30;54596;43.216;27.904;2024-03-22T12:30:10;13.04;57.79
67799;SHT30;54596;43.216;27.904;2024-03-22T12:32:36;12.94;57.52
67799;SHT30;54596;43.216;27.904;2024-03-22T12:35:02;12.95;57.43
67799;SHT30;54596;43.216;27.904;2024-03-22T12:37:27;12.98;56.96
67799;SHT30;54596;43.216;27.904;2024-03-22T12:39:53;13.08;55.46
67799;SHT30;54596;43.216;27.904;2024-03-22T12:42:19;13.12;54.78
67799;SHT30;54596;43.216;27.904;2024-03-22T12:44:45;13.16;55.85
67799;SHT30;54596;43.216;27.904;2024-03-22T12:47:10;13.19;56.34
67799;SHT30;54596;43.216;27.904;2024-03-22T12:49:36;13.23;56.12
67799;SHT30;54596;43.216;27.904;2024-03-22T12:52:02;13.10;55.04
67799;SHT30;54596;43.216;27.904;2024-03-22T12:54:29;13.14;55.20
67799;SHT30;54596;43.216;27.904;2024-03-22T12:56:54;13.07;55.62
67799;SHT30;54596;43.216;27.904;2024-03-22T12:59:20;13.05;55.92
67799;SHT30;54596;43.216;27.904;2024-03-22T13:01:46;13.22;55.94
67799;SHT30;54596;43.216;27.904;2024-03-22T13:04:12;13.12;55.38
67799;SHT30;54596;43.216;27.904;2024-03-22T13:06:38;13.22;55.57
67799;SHT30;54596;43.216;27.904;2024-03-22T13:09:03;13.21;56.53
67799;SHT30;54596;43.216;27.904;2024-03-22T13:11:31;13.19;57.00
67799;SHT30;54596;43.216;27.904;2024-03-22T13:13:57;13.26;57.00
67799;SHT30;54596;43.216;27.904;2024-03-22T13:16:23;13.23;55.80
67799;SHT30;54596;43.216;27.904;2024-03-22T13:18:49;13.23;55.68
67799;SHT30;54596;43.216;27.904;2024-03-22T13:21:14;13.26;55.57
67799;SHT30;54596;43.216;27.904;2024-03-22T13:23:40;13.23;55.62
67799;SHT30;54596;43.216;27.904;2024-03-22T13:26:05;13.19;55.93
67799;SHT30;54596;43.216;27.904;2024-03-22T13:28:32;13.08;56.21
67799;SHT30;54596;43.216;27.904;2024-03-22T13:31:04;13.00;55.71
67799;SHT30;54596;43.216;27.904;2024-03-22T13:33:35;13.00;56.34
67799;SHT30;54596;43.216;27.904;2024-03-22T13:36:02;12.98;56.64
67799;SHT30;54596;43.216;27.904;2024-03-22T13:38:29;12.91;56.56
67799;SHT30;54596;43.216;27.904;2024-03-22T13:40:56;12.97;57.33
67799;SHT30;54596;43.216;27.904;2024-03-22T13:43:23;12.98;57.73
67799;SHT30;54596;43.216;27.904;2024-03-22T13:45:52;12.91;57.30
67799;SHT30;54596;43.216;27.904;2024-03-22T13:48:24;12.91;57.27
67799;SHT30;54596;43.216;27.904;2024-03-22T13:50:54;12.76;56.82
67799;SHT30;54596;43.216;27.904;2024-03-22T13:53:20;12.70;56.86
67799;SHT30;54596;43.216;27.904;2024-03-22T13:55:50;12.62;57.08
67799;SHT30;54596;43.216;27.904;2024-03-22T13:58:15;12.59;57.20
67799;SHT30;54596;43.216;27.904;2024-03-22T14:00:41;12.60;56.76
67799;SHT30;54596;43.216;27.904;2024-03-22T14:03:07;12.59;56.36
67799;SHT30;54596;43.216;27.904;2024-03-22T14:05:33;12.66;56.56
67799;SHT30;54596;43.216;27.904;2024-03-22T14:07:58;12.62;56.02
67799;SHT30;54596;43.216;27.904;2024-03-22T14:10:24;12.56;56.18
67799;SHT30;54596;43.216;27.904;2024-03-22T14:12:52;12.48;56.79
67799;SHT30;54596;43.216;27.904;2024-03-22T14:15:18;12.45;57.41
67799;SHT30;54596;43.216;27.904;2024-03-22T14:17:43;12.45;57.18
67799;SHT30;54596;43.216;27.904;2024-03-22T14:20:09;12.45;57.22
67799;SHT30;54596;43.216;27.904;2024-03-22T14:22:39;12.43;56.95
67799;SHT30;54596;43.216;27.904;2024-03-22T14:25:06;12.43;56.48
67799;SHT30;54596;43.216;27.904;2024-03-22T14:27:32;12.49;56.76
67799;SHT30;54596;43.216;27.904;2024-03-22T14:29:58;12.46;56.56
67799;SHT30;54596;43.216;27.904;2024-03-22T14:32:23;12.46;57.07
67799;SHT30;54596;43.216;27.904;2024-03-22T14:34:49;12.46;56.97
67799;SHT30;54596;43.216;27.904;2024-03-22T14:37:14;12.42;56.95
67799;SHT30;54596;43.216;27.904;2024-03-22T14:39:40;12.42;57.72
67799;SHT30;54596;43.216;27.904;2024-03-22T14:42:07;12.32;64.52
67799;SHT30;54596;43.216;27.904;2024-03-22T14:44:33;12.26;69.47
67799;SHT30;54596;43.216;27.904;2024-03-22T14:46:58;11.83;71.47
67799;SHT30;54596;43.216;27.904;2024-03-22T14:49:24;11.63;72.40
67799;SHT30;54596;43.216;27.904;2024-03-22T14:51:50;11.56;73.41
67799;SHT30;54596;43.216;27.904;2024-03-22T14:54:19;11.42;73.41
67799;SHT30;54596;43.216;27.904;2024-03-22T14:56:44;11.24;72.80
67799;SHT30;54596;43.216;27.904;2024-03-22T14:59:11;11.14;74.69
67799;SHT30;54596;43.216;27.904;2024-03-22T15:01:37;11.06;75.33
67799;SHT30;54596;43.216;27.904;2024-03-22T15:04:04;10.99;75.00
67799;SHT30;54596;43.216;27.904;2024-03-22T15:06:29;10.73;75.47
67799;SHT30;54596;43.216;27.904;2024-03-22T15:08:55;10.80;75.35
67799;SHT30;54596;43.216;27.904;2024-03-22T15:11:21;10.67;76.25
67799;SHT30;54596;43.216;27.904;2024-03-22T15:13:47;10.56;76.09
67799;SHT30;54596;43.216;27.904;2024-03-22T15:16:12;10.49;76.57
67799;SHT30;54596;43.216;27.904;2024-03-22T15:18:39;10.55;76.52